Time;durP1;ratioP1;P1;durP2;ratioP2;P2;SDS_P1;SDS_P2;PMS_P1;PMS_P2;Temp;Humidity;BMP_temperature;BMP_pressure;BME280_temperature;BME280_humidity;BME280_pressure;Samples;Min_cycle;Max_cycle;Signal;HPM_P1;HPM_P2
2022/12/19 00:01:34;;;;;;;115.10;48.20;;;;;;;;;;5052874;28;20735;-83
2022/12/19 00:04:01;;;;;;;108.38;46.30;;;;;;;;;;5052696;28;20390;-83
2022/12/19 00:06:28;;;;;;;104.90;45.78;;;;;;;;;;5052600;28;20375;-83
2022/12/19 00:08:55;;;;;;;106.15;46.05;;;;;;;;;;5052092;28;20886;-83
2022/12/19 00:11:22;;;;;;;111.13;46.10;;;;;;;;;;5052588;28;20381;-83
2022/12/19 00:13:48;;;;;;;108.90;46.50;;;;;;;;;;5052479;28;20412;-83
2022/12/19 00:16:16;;;;;;;117.32;49.55;;;;;;;;;;5052434;28;20401;-83
2022/12/19 00:18:43;;;;;;;114.03;47.28;;;;;;;;;;5052345;28;20367;-83
2022/12/19 00:21:10;;;;;;;113.70;46.75;;;;;;;;;;5052355;28;20891;-83
2022/12/19 00:23:36;;;;;;;110.25;47.92;;;;;;;;;;5048145;28;20398;-83
2022/12/19 00:26:07;;;;;;;108.43;46.13;;;;;;;;;;5046365;28;20877;-83
2022/12/19 00:28:33;;;;;;;117.83;48.13;;;;;;;;;;5052274;28;20399;-82
2022/12/19 00:31:02;;;;;;;109.47;47.03;;;;;;;;;;5052138;28;20385;-83
2022/12/19 00:33:28;;;;;;;110.83;46.27;;;;;;;;;;5052074;28;20566;-83
2022/12/19 00:35:58;;;;;;;120.05;48.90;;;;;;;;;;5048373;28;20375;-83
2022/12/19 00:38:24;;;;;;;128.40;50.15;;;;;;;;;;5049791;28;20809;-83
2022/12/19 00:40:49;;;;;;;129.68;50.85;;;;;;;;;;5051838;28;20461;-83
2022/12/19 00:43:15;;;;;;;118.80;49.58;;;;;;;;;;5033926;28;20401;-83
2022/12/19 00:45:41;;;;;;;137.15;51.28;;;;;;;;;;5051921;28;20400;-83
2022/12/19 00:48:07;;;;;;;137.00;52.55;;;;;;;;;;5051928;28;20856;-83
2022/12/19 00:50:33;;;;;;;148.15;52.70;;;;;;;;;;5051749;28;20393;-83
2022/12/19 00:52:59;;;;;;;157.93;55.30;;;;;;;;;;5051679;28;20401;-83
2022/12/19 00:55:25;;;;;;;149.23;53.45;;;;;;;;;;5051738;28;20443;-83
2022/12/19 00:57:51;;;;;;;137.73;52.10;;;;;;;;;;5051725;28;20412;-83
2022/12/19 01:00:17;;;;;;;133.05;50.65;;;;;;;;;;5051540;28;20567;-83
2022/12/19 01:02:44;;;;;;;129.20;50.65;;;;;;;;;;5051604;28;20377;-83
2022/12/19 01:05:10;;;;;;;125.30;49.70;;;;;;;;;;5051195;28;20867;-82
2022/12/19 01:07:36;;;;;;;127.90;50.80;;;;;;;;;;5051532;28;20861;-83
2022/12/19 01:10:03;;;;;;;123.83;49.57;;;;;;;;;;5051603;28;20459;-83
2022/12/19 01:12:47;;;;;;;118.72;47.15;;;;;;;;;;5051434;28;20762;-84
2022/12/19 01:15:14;;;;;;;123.68;49.22;;;;;;;;;;5048420;28;20365;-84
2022/12/19 01:17:40;;;;;;;117.55;48.55;;;;;;;;;;5046731;28;20515;-84
2022/12/19 01:20:07;;;;;;;114.25;47.40;;;;;;;;;;5051330;28;20870;-83
2022/12/19 01:22:33;;;;;;;113.13;47.58;;;;;;;;;;5050313;28;20390;-83
2022/12/19 01:24:59;;;;;;;120.55;48.00;;;;;;;;;;5050314;28;20476;-84
2022/12/19 01:27:24;;;;;;;115.57;47.88;;;;;;;;;;5050339;28;20393;-84
2022/12/19 01:29:50;;;;;;;118.00;47.42;;;;;;;;;;5050316;28;20746;-84
2022/12/19 01:32:16;;;;;;;120.70;47.33;;;;;;;;;;5050213;28;20403;-84
2022/12/19 01:34:42;;;;;;;110.72;46.85;;;;;;;;;;5050162;28;20390;-84
2022/12/19 01:37:08;;;;;;;109.47;45.58;;;;;;;;;;5048520;28;20413;-83
2022/12/19 01:39:34;;;;;;;110.97;46.53;;;;;;;;;;5050019;28;20412;-84
2022/12/19 01:42:00;;;;;;;106.82;45.50;;;;;;;;;;5049362;28;20377;-85
2022/12/19 01:44:26;;;;;;;105.00;44.63;;;;;;;;;;5044148;28;20490;-83
2022/12/19 01:46:58;;;;;;;116.07;46.67;;;;;;;;;;5048781;28;20389;-83
2022/12/19 01:49:36;;;;;;;107.37;46.40;;;;;;;;;;5047772;28;20382;-83
2022/12/19 01:52:04;;;;;;;111.43;45.75;;;;;;;;;;5050256;28;20389;-83
2022/12/19 01:54:35;;;;;;;105.45;44.65;;;;;;;;;;5051206;28;20487;-83
2022/12/19 01:57:02;;;;;;;105.40;45.15;;;;;;;;;;5050606;28;20469;-83
2022/12/19 01:59:31;;;;;;;107.93;44.60;;;;;;;;;;5050319;28;20406;-83
2022/12/19 02:01:59;;;;;;;118.93;48.20;;;;;;;;;;5049460;28;20385;-83
2022/12/19 02:04:27;;;;;;;122.90;49.55;;;;;;;;;;5050338;28;20731;-83
2022/12/19 02:06:57;;;;;;;132.82;51.83;;;;;;;;;;5049978;28;20382;-83
2022/12/19 02:09:26;;;;;;;134.93;50.75;;;;;;;;;;5050742;28;20390;-83
2022/12/19 02:11:53;;;;;;;132.32;52.00;;;;;;;;;;5050965;28;20918;-83
2022/12/19 02:14:19;;;;;;;137.20;51.55;;;;;;;;;;5050808;28;20762;-83
2022/12/19 02:16:54;;;;;;;135.40;52.17;;;;;;;;;;5033116;28;20969;-83
2022/12/19 02:19:52;;;;;;;134.50;52.40;;;;;;;;;;5050646;28;25140;-84
2022/12/19 02:22:30;;;;;;;136.40;51.92;;;;;;;;;;5050941;28;20375;-83
2022/12/19 02:25:14;;;;;;;132.70;52.05;;;;;;;;;;5041439;28;25113;-83
2022/12/19 02:27:57;;;;;;;120.88;50.03;;;;;;;;;;5039253;28;20864;-83
2022/12/19 02:30:29;;;;;;;125.45;50.85;;;;;;;;;;5039386;28;20385;-83
2022/12/19 02:32:58;;;;;;;129.37;51.70;;;;;;;;;;5054329;28;20402;-83
2022/12/19 02:35:24;;;;;;;131.40;52.53;;;;;;;;;;5054459;28;20389;-83
2022/12/19 02:37:55;;;;;;;126.20;51.13;;;;;;;;;;5054422;28;20382;-83
2022/12/19 02:40:23;;;;;;;129.60;50.63;;;;;;;;;;5054194;28;20469;-83
2022/12/19 02:42:52;;;;;;;128.15;51.28;;;;;;;;;;5054221;28;20385;-83
2022/12/19 02:45:19;;;;;;;127.72;50.20;;;;;;;;;;5054071;28;20413;-83
2022/12/19 02:47:45;;;;;;;129.85;49.60;;;;;;;;;;5054309;28;20923;-83
2022/12/19 02:50:11;;;;;;;122.47;50.83;;;;;;;;;;5046653;28;20412;-83
2022/12/19 02:52:37;;;;;;;120.65;49.22;;;;;;;;;;5041877;28;21012;-83
2022/12/19 02:55:05;;;;;;;119.47;49.03;;;;;;;;;;5052159;28;20469;-83
2022/12/19 02:57:37;;;;;;;130.85;50.60;;;;;;;;;;5053782;28;20371;-83
2022/12/19 03:00:08;;;;;;;130.23;50.50;;;;;;;;;;5053631;28;20395;-83
2022/12/19 03:02:40;;;;;;;124.82;50.13;;;;;;;;;;5053423;28;20393;-83
2022/12/19 03:05:15;;;;;;;130.38;52.00;;;;;;;;;;5053599;28;20389;-83
2022/12/19 03:07:43;;;;;;;122.53;48.33;;;;;;;;;;5053569;28;25094;-83
2022/12/19 03:10:16;;;;;;;124.68;50.22;;;;;;;;;;5053645;28;20739;-83
2022/12/19 03:13:09;;;;;;;113.18;48.22;;;;;;;;;;5050934;28;20398;-83
2022/12/19 03:15:35;;;;;;;117.15;48.45;;;;;;;;;;5015798;28;20399;-83
2022/12/19 03:18:01;;;;;;;121.05;48.95;;;;;;;;;;5053483;28;20378;-83
2022/12/19 03:20:43;;;;;;;117.50;49.77;;;;;;;;;;5053436;28;20435;-83
2022/12/19 03:23:10;;;;;;;116.55;49.75;;;;;;;;;;5053436;28;25094;-83
2022/12/19 03:25:36;;;;;;;116.13;49.42;;;;;;;;;;5035624;28;20390;-83
2022/12/19 03:28:05;;;;;;;120.88;51.15;;;;;;;;;;5053325;28;20385;-83
2022/12/19 03:30:32;;;;;;;118.72;50.40;;;;;;;;;;5053291;28;20385;-83
2022/12/19 03:32:59;;;;;;;121.47;49.85;;;;;;;;;;5051529;28;20406;-83
2022/12/19 03:35:27;;;;;;;122.82;50.80;;;;;;;;;;5053329;28;20381;-83
2022/12/19 03:37:58;;;;;;;121.77;49.20;;;;;;;;;;5053298;28;20797;-83
2022/12/19 03:40:25;;;;;;;113.32;47.17;;;;;;;;;;5053100;28;20415;-83
2022/12/19 03:43:08;;;;;;;123.60;50.13;;;;;;;;;;5042142;28;20740;-83
2022/12/19 03:45:42;;;;;;;123.93;50.17;;;;;;;;;;5049821;28;33154;-83
2022/12/19 03:48:11;;;;;;;125.57;51.15;;;;;;;;;;5053167;28;20697;-83
2022/12/19 03:50:45;;;;;;;118.78;49.78;;;;;;;;;;5052907;28;20417;-83
2022/12/19 03:53:18;;;;;;;115.45;48.80;;;;;;;;;;5052933;28;20482;-83
2022/12/19 03:55:47;;;;;;;114.50;49.25;;;;;;;;;;5052848;28;20843;-83
2022/12/19 03:58:18;;;;;;;125.05;49.38;;;;;;;;;;5052835;28;20393;-83
2022/12/19 04:00:46;;;;;;;130.95;50.72;;;;;;;;;;5052557;28;20431;-83
2022/12/19 04:03:15;;;;;;;123.93;49.58;;;;;;;;;;5052859;28;20401;-83
2022/12/19 04:05:41;;;;;;;121.65;49.85;;;;;;;;;;5052710;28;20431;-83
2022/12/19 04:08:08;;;;;;;126.50;50.95;;;;;;;;;;5034778;28;20951;-83
2022/12/19 04:10:46;;;;;;;125.93;51.00;;;;;;;;;;5052570;28;20392;-83
2022/12/19 04:13:18;;;;;;;136.82;52.22;;;;;;;;;;5052522;28;20409;-83
2022/12/19 04:15:56;;;;;;;129.20;51.38;;;;;;;;;;5052577;28;20882;-83
2022/12/19 04:18:22;;;;;;;123.22;48.60;;;;;;;;;;5049619;28;20385;-83
2022/12/19 04:20:52;;;;;;;123.65;50.38;;;;;;;;;;5045474;28;20385;-83
2022/12/19 04:23:21;;;;;;;121.77;50.73;;;;;;;;;;5050542;28;20416;-84
2022/12/19 04:25:50;;;;;;;121.57;50.00;;;;;;;;;;5052380;28;20417;-83
2022/12/19 04:28:34;;;;;;;123.07;50.25;;;;;;;;;;5052256;28;20467;-83
2022/12/19 04:31:00;;;;;;;129.98;52.50;;;;;;;;;;5048595;28;20402;-84
2022/12/19 04:33:26;;;;;;;122.07;49.85;;;;;;;;;;5037896;28;20786;-83
2022/12/19 04:35:52;;;;;;;126.85;50.70;;;;;;;;;;5042666;28;20380;-83
2022/12/19 04:38:22;;;;;;;120.25;50.00;;;;;;;;;;5049213;28;20556;-83
2022/12/19 04:40:48;;;;;;;122.97;50.97;;;;;;;;;;5051606;28;20439;-83
2022/12/19 04:43:14;;;;;;;122.95;51.03;;;;;;;;;;5051341;28;20438;-83
2022/12/19 04:45:41;;;;;;;118.18;49.80;;;;;;;;;;5050688;28;20377;-84
2022/12/19 04:48:07;;;;;;;111.47;47.90;;;;;;;;;;5050756;28;20421;-85
2022/12/19 04:50:33;;;;;;;111.45;48.50;;;;;;;;;;5049707;28;20389;-85
2022/12/19 04:52:59;;;;;;;112.03;48.67;;;;;;;;;;5050527;28;20956;-82
2022/12/19 04:55:25;;;;;;;121.38;50.22;;;;;;;;;;5051790;28;20385;-83
2022/12/19 04:57:51;;;;;;;118.07;49.40;;;;;;;;;;5051895;28;20377;-82
2022/12/19 05:00:17;;;;;;;114.57;49.40;;;;;;;;;;5051520;28;20887;-82
2022/12/19 05:02:44;;;;;;;120.43;50.38;;;;;;;;;;5053011;28;20384;-83
2022/12/19 05:05:10;;;;;;;119.95;50.88;;;;;;;;;;5048704;28;20378;-82
2022/12/19 05:07:36;;;;;;;116.03;48.80;;;;;;;;;;5051616;28;20522;-82
2022/12/19 05:10:03;;;;;;;107.47;46.83;;;;;;;;;;5051632;28;20477;-83
2022/12/19 05:12:29;;;;;;;113.95;49.28;;;;;;;;;;5051484;28;20487;-82
2022/12/19 05:14:55;;;;;;;110.45;48.13;;;;;;;;;;5051584;28;20453;-82
2022/12/19 05:17:21;;;;;;;109.93;47.43;;;;;;;;;;5051565;28;20854;-82
2022/12/19 05:19:47;;;;;;;108.15;47.88;;;;;;;;;;5051416;28;20388;-82
2022/12/19 05:22:13;;;;;;;106.20;46.95;;;;;;;;;;5051544;28;20465;-82
2022/12/19 05:24:39;;;;;;;108.15;46.47;;;;;;;;;;5051412;28;20412;-83
2022/12/19 05:27:05;;;;;;;103.85;45.72;;;;;;;;;;5051517;28;20385;-82
2022/12/19 05:29:31;;;;;;;105.60;46.22;;;;;;;;;;5051324;28;20382;-82
2022/12/19 05:31:57;;;;;;;101.28;45.40;;;;;;;;;;5051326;28;20781;-82
2022/12/19 05:34:23;;;;;;;96.75;44.05;;;;;;;;;;5051343;28;20504;-83
2022/12/19 05:36:49;;;;;;;101.70;45.60;;;;;;;;;;5051364;28;20377;-82
2022/12/19 05:39:15;;;;;;;100.35;44.28;;;;;;;;;;5051305;28;20443;-81
2022/12/19 05:41:41;;;;;;;100.73;44.97;;;;;;;;;;5045234;28;20392;-82
2022/12/19 05:44:08;;;;;;;99.30;44.65;;;;;;;;;;5042350;28;20381;-82
2022/12/19 05:46:34;;;;;;;93.13;43.38;;;;;;;;;;5051308;28;20435;-82
2022/12/19 05:49:00;;;;;;;98.35;44.55;;;;;;;;;;5051116;28;20445;-82
2022/12/19 05:51:26;;;;;;;96.03;44.13;;;;;;;;;;5051312;28;20389;-82
2022/12/19 05:53:52;;;;;;;91.63;43.17;;;;;;;;;;5051026;28;20463;-83
2022/12/19 05:56:20;;;;;;;96.00;44.80;;;;;;;;;;5051184;28;20385;-83
2022/12/19 05:58:46;;;;;;;96.75;44.45;;;;;;;;;;5050907;28;20889;-84
2022/12/19 06:01:14;;;;;;;98.30;45.17;;;;;;;;;;5051110;28;20473;-83
2022/12/19 06:03:40;;;;;;;101.07;45.47;;;;;;;;;;5051132;28;20385;-83
2022/12/19 06:06:11;;;;;;;98.65;44.75;;;;;;;;;;5052843;28;20385;-83
2022/12/19 06:08:37;;;;;;;98.70;45.42;;;;;;;;;;5054772;28;20385;-83
2022/12/19 06:11:04;;;;;;;96.13;44.90;;;;;;;;;;5054329;28;20468;-83
2022/12/19 06:13:31;;;;;;;97.93;45.22;;;;;;;;;;5053972;28;20511;-84
2022/12/19 06:16:04;;;;;;;95.60;43.58;;;;;;;;;;5054749;28;20389;-83
2022/12/19 06:18:30;;;;;;;96.00;44.63;;;;;;;;;;5054168;28;20390;-84
2022/12/19 06:20:57;;;;;;;90.90;42.95;;;;;;;;;;5044169;28;20383;-83
2022/12/19 06:23:23;;;;;;;97.18;45.72;;;;;;;;;;5052242;28;20371;-83
2022/12/19 06:25:49;;;;;;;89.80;43.20;;;;;;;;;;5054639;28;20377;-83
2022/12/19 06:28:15;;;;;;;95.25;43.95;;;;;;;;;;5054454;28;20387;-83
2022/12/19 06:30:41;;;;;;;92.72;44.38;;;;;;;;;;5054385;28;20377;-83
2022/12/19 06:33:07;;;;;;;91.03;42.67;;;;;;;;;;5053353;28;20981;-83
2022/12/19 06:35:33;;;;;;;97.90;44.25;;;;;;;;;;5054439;28;20389;-83
2022/12/19 06:37:59;;;;;;;89.18;42.80;;;;;;;;;;5054298;28;20515;-83
2022/12/19 06:43:10;;;;;;;92.55;43.65;;;;;;;;;;5054197;28;20392;-83
2022/12/19 06:45:36;;;;;;;89.57;42.72;;;;;;;;;;5033917;28;20894;-84
2022/12/19 06:48:01;;;;;;;92.40;43.47;;;;;;;;;;5036235;28;20403;-83
2022/12/19 06:50:27;;;;;;;93.47;44.70;;;;;;;;;;5043415;28;20401;-84
2022/12/19 06:52:53;;;;;;;93.30;43.15;;;;;;;;;;5052356;28;20420;-84
2022/12/19 06:55:19;;;;;;;93.55;43.28;;;;;;;;;;5053082;28;20384;-84
2022/12/19 06:57:45;;;;;;;94.68;43.90;;;;;;;;;;5052158;28;20381;-84
2022/12/19 07:00:13;;;;;;;87.57;42.20;;;;;;;;;;5053799;28;20401;-84
2022/12/19 07:02:41;;;;;;;92.43;43.85;;;;;;;;;;5052819;28;20754;-84
2022/12/19 07:05:08;;;;;;;96.75;44.83;;;;;;;;;;5053876;28;20391;-87
2022/12/19 07:07:34;;;;;;;92.88;43.95;;;;;;;;;;5036199;28;20385;-87
2022/12/19 07:10:00;;;;;;;94.72;43.55;;;;;;;;;;5053171;28;20395;-87
2022/12/19 07:12:26;;;;;;;88.47;42.15;;;;;;;;;;5053658;28;20480;-89
2022/12/19 07:14:52;;;;;;;93.30;44.60;;;;;;;;;;5053410;28;20464;-87
2022/12/19 07:17:19;;;;;;;87.63;42.05;;;;;;;;;;5045453;28;20387;-88
2022/12/19 07:19:45;;;;;;;92.30;41.78;;;;;;;;;;5052662;28;20385;-90
2022/12/19 07:22:11;;;;;;;94.78;43.67;;;;;;;;;;5053585;28;20456;-88
2022/12/19 07:24:37;;;;;;;89.15;41.85;;;;;;;;;;5053530;28;20469;-88
2022/12/19 07:27:06;;;;;;;88.00;42.53;;;;;;;;;;5059138;28;20405;-90
2022/12/19 07:29:32;;;;;;;92.20;43.30;;;;;;;;;;5054167;28;20458;-89
2022/12/19 07:31:58;;;;;;;94.10;42.53;;;;;;;;;;5035430;28;20878;-86
2022/12/19 07:34:24;;;;;;;86.88;41.67;;;;;;;;;;5053291;28;20405;-87
2022/12/19 07:36:50;;;;;;;89.65;42.15;;;;;;;;;;5035383;28;20893;-88
2022/12/19 07:39:16;;;;;;;86.85;41.83;;;;;;;;;;5053081;28;20486;-87
2022/12/19 07:41:42;;;;;;;89.97;43.00;;;;;;;;;;5053216;28;20386;-87
2022/12/19 07:44:08;;;;;;;89.72;42.17;;;;;;;;;;5052432;28;20408;-86
2022/12/19 07:46:35;;;;;;;86.00;42.92;;;;;;;;;;5043517;28;20440;-87
2022/12/19 07:49:00;;;;;;;83.93;41.55;;;;;;;;;;5044336;28;20399;-87
2022/12/19 07:51:27;;;;;;;86.73;41.60;;;;;;;;;;5048923;28;20388;-86
2022/12/19 07:53:53;;;;;;;86.35;41.35;;;;;;;;;;5050715;28;20486;-87
2022/12/19 07:56:19;;;;;;;87.03;41.77;;;;;;;;;;5052552;28;20477;-88
2022/12/19 07:58:45;;;;;;;91.45;43.35;;;;;;;;;;5032811;28;20378;-87
2022/12/19 08:01:13;;;;;;;86.13;42.40;;;;;;;;;;5038042;28;20399;-87
2022/12/19 08:03:39;;;;;;;85.10;43.03;;;;;;;;;;5027039;28;20439;-87
2022/12/19 08:06:06;;;;;;;84.13;42.33;;;;;;;;;;5052304;28;20378;-86
2022/12/19 08:08:33;;;;;;;84.75;42.33;;;;;;;;;;5033596;28;20396;-87
2022/12/19 08:11:09;;;;;;;84.88;41.58;;;;;;;;;;5048685;28;20381;-87
2022/12/19 08:13:35;;;;;;;89.78;42.92;;;;;;;;;;5049368;28;25141;-87
2022/12/19 08:16:01;;;;;;;90.72;42.65;;;;;;;;;;5050157;28;20427;-87
2022/12/19 08:18:27;;;;;;;85.35;41.28;;;;;;;;;;5050264;28;20378;-87
2022/12/19 08:20:53;;;;;;;89.50;43.88;;;;;;;;;;5050138;28;20393;-88
2022/12/19 08:23:22;;;;;;;94.35;44.58;;;;;;;;;;5047527;28;20758;-87
2022/12/19 08:25:48;;;;;;;90.90;44.85;;;;;;;;;;5048300;28;20804;-87
2022/12/19 08:28:15;;;;;;;85.77;42.83;;;;;;;;;;5049758;28;20460;-87
2022/12/19 08:30:41;;;;;;;85.57;42.38;;;;;;;;;;5047454;28;20402;-88
2022/12/19 08:33:07;;;;;;;85.53;42.65;;;;;;;;;;5050052;28;20804;-86
2022/12/19 08:35:35;;;;;;;89.00;42.53;;;;;;;;;;5031986;28;20388;-87
2022/12/19 08:38:01;;;;;;;83.03;41.92;;;;;;;;;;5050026;28;20847;-87
2022/12/19 08:40:30;;;;;;;84.50;42.63;;;;;;;;;;5047206;28;20476;-88
2022/12/19 08:42:56;;;;;;;91.90;43.85;;;;;;;;;;5052269;28;20393;-88
2022/12/19 08:45:22;;;;;;;85.25;42.03;;;;;;;;;;5033680;28;20389;-89
2022/12/19 08:47:48;;;;;;;86.38;43.38;;;;;;;;;;5052026;28;20408;-89
2022/12/19 08:50:14;;;;;;;85.40;42.03;;;;;;;;;;5051839;28;20377;-87
2022/12/19 08:52:40;;;;;;;84.53;42.13;;;;;;;;;;5051818;28;20388;-88
2022/12/19 08:55:06;;;;;;;86.32;45.03;;;;;;;;;;5034049;28;20951;-88
2022/12/19 08:57:32;;;;;;;88.65;44.22;;;;;;;;;;5051777;28;20456;-89
2022/12/19 08:59:58;;;;;;;80.55;42.60;;;;;;;;;;5051076;28;20842;-87
2022/12/19 09:02:24;;;;;;;83.18;42.90;;;;;;;;;;5049598;28;20380;-88
2022/12/19 09:04:50;;;;;;;80.47;41.35;;;;;;;;;;5051391;28;20919;-89
2022/12/19 09:07:16;;;;;;;85.70;42.63;;;;;;;;;;5051690;28;20415;-89
2022/12/19 09:09:42;;;;;;;80.47;40.35;;;;;;;;;;5033815;28;20804;-89
2022/12/19 09:12:08;;;;;;;78.78;40.05;;;;;;;;;;5051684;28;20385;-88
2022/12/19 09:14:35;;;;;;;77.43;39.20;;;;;;;;;;5047813;28;20409;-87
2022/12/19 09:17:01;;;;;;;78.68;39.60;;;;;;;;;;5051487;28;20385;-89
2022/12/19 09:19:27;;;;;;;77.78;40.13;;;;;;;;;;5051140;28;20921;-87
2022/12/19 09:21:53;;;;;;;73.87;38.47;;;;;;;;;;5051550;28;20430;-89
2022/12/19 09:24:19;;;;;;;75.47;39.97;;;;;;;;;;5051154;28;20394;-87
2022/12/19 09:26:45;;;;;;;79.43;40.42;;;;;;;;;;5033581;28;20385;-88
2022/12/19 09:29:11;;;;;;;73.68;39.53;;;;;;;;;;5051401;28;20382;-88
2022/12/19 09:31:38;;;;;;;72.75;38.63;;;;;;;;;;5051305;28;20377;-89
2022/12/19 09:34:04;;;;;;;76.32;40.10;;;;;;;;;;5048025;28;20405;-87
2022/12/19 09:36:30;;;;;;;78.03;41.63;;;;;;;;;;5050791;28;20377;-88
2022/12/19 09:38:57;;;;;;;72.70;38.60;;;;;;;;;;5051231;28;20392;-87
2022/12/19 09:41:36;;;;;;;76.32;38.60;;;;;;;;;;5035790;28;20373;-88
2022/12/19 09:44:20;;;;;;;73.70;38.70;;;;;;;;;;5055292;28;20385;-88
2022/12/19 09:46:46;;;;;;;72.70;38.65;;;;;;;;;;5033489;28;20846;-88
2022/12/19 09:49:13;;;;;;;73.70;38.17;;;;;;;;;;5054018;28;20384;-86
2022/12/19 09:51:57;;;;;;;82.72;41.85;;;;;;;;;;5052088;28;20381;-87
2022/12/19 09:54:46;;;;;;;84.17;42.07;;;;;;;;;;5054940;28;20401;-86
2022/12/19 09:57:14;;;;;;;81.40;43.13;;;;;;;;;;5042248;28;20385;-87
2022/12/19 09:59:46;;;;;;;77.20;40.03;;;;;;;;;;5055060;28;20495;-88
2022/12/19 10:02:24;;;;;;;80.80;41.37;;;;;;;;;;5055113;28;20385;-87
2022/12/19 10:04:54;;;;;;;78.38;39.78;;;;;;;;;;5055310;28;20425;-86
2022/12/19 10:07:21;;;;;;;78.73;39.47;;;;;;;;;;5054163;28;20469;-87
2022/12/19 10:09:47;;;;;;;79.60;40.50;;;;;;;;;;5036276;28;20416;-89
2022/12/19 10:12:35;;;;;;;74.93;39.53;;;;;;;;;;5036995;28;20859;-88
2022/12/19 10:15:16;;;;;;;79.35;39.92;;;;;;;;;;5047834;28;25114;-87
2022/12/19 10:18:09;;;;;;;79.18;41.45;;;;;;;;;;5058259;28;20418;-86
2022/12/19 10:20:37;;;;;;;82.53;41.92;;;;;;;;;;5054565;28;20427;-87
2022/12/19 10:23:38;;;;;;;93.07;45.70;;;;;;;;;;5055021;28;20485;-86
2022/12/19 10:26:10;;;;;;;82.28;42.20;;;;;;;;;;5054520;28;20427;-88
2022/12/19 10:29:15;;;;;;;87.00;42.75;;;;;;;;;;5054459;28;20393;-87
2022/12/19 10:31:44;;;;;;;93.60;46.97;;;;;;;;;;4976776;28;20396;-87
2022/12/19 10:34:23;;;;;;;86.35;44.58;;;;;;;;;;4973671;28;20416;-86
2022/12/19 10:36:55;;;;;;;76.97;39.83;;;;;;;;;;5009524;28;20893;-87
2022/12/19 10:39:33;;;;;;;86.10;43.35;;;;;;;;;;5033133;28;20371;-88
2022/12/19 10:42:04;;;;;;;84.80;42.47;;;;;;;;;;5053455;28;20417;-88
2022/12/19 10:44:32;;;;;;;82.72;42.15;;;;;;;;;;5054001;28;20395;-87
2022/12/19 10:46:58;;;;;;;83.60;42.35;;;;;;;;;;5053864;28;20395;-90
2022/12/19 10:49:26;;;;;;;87.65;43.42;;;;;;;;;;5054164;28;20459;-88
2022/12/19 10:51:55;;;;;;;80.95;41.80;;;;;;;;;;5035857;28;20732;-89
2022/12/19 10:54:36;;;;;;;80.70;42.08;;;;;;;;;;5054018;28;20800;-91
2022/12/19 10:57:19;;;;;;;93.32;45.53;;;;;;;;;;5051330;28;20395;-88
2022/12/19 10:59:58;;;;;;;83.50;42.97;;;;;;;;;;5050104;28;20506;-89
2022/12/19 11:02:31;;;;;;;88.03;42.80;;;;;;;;;;5053786;28;25191;-87
2022/12/19 11:04:57;;;;;;;91.68;45.05;;;;;;;;;;5033574;28;20413;-87
2022/12/19 11:07:23;;;;;;;87.57;44.83;;;;;;;;;;5056000;28;20385;-89
2022/12/19 11:09:49;;;;;;;86.30;43.30;;;;;;;;;;5051901;28;20459;-88
2022/12/19 11:12:17;;;;;;;88.07;43.55;;;;;;;;;;5052318;28;20388;-88
2022/12/19 11:14:49;;;;;;;86.43;43.40;;;;;;;;;;5053615;28;20783;-87
2022/12/19 11:17:27;;;;;;;81.50;43.33;;;;;;;;;;5036036;28;20385;-86
2022/12/19 11:19:56;;;;;;;82.83;42.13;;;;;;;;;;5051817;28;20378;-89
2022/12/19 11:22:30;;;;;;;89.25;42.75;;;;;;;;;;5052440;28;20731;-88
2022/12/19 11:24:56;;;;;;;88.65;43.28;;;;;;;;;;5053085;28;25151;-87
2022/12/19 11:27:30;;;;;;;88.68;43.85;;;;;;;;;;5053552;28;20392;-87
2022/12/19 11:29:57;;;;;;;93.70;44.65;;;;;;;;;;5039407;28;20462;-86
2022/12/19 11:32:32;;;;;;;86.45;44.38;;;;;;;;;;5053403;28;20378;-90
2022/12/19 11:35:02;;;;;;;96.95;46.85;;;;;;;;;;5035536;28;25149;-91
2022/12/19 11:37:40;;;;;;;85.85;44.72;;;;;;;;;;5053325;28;20381;-86
2022/12/19 11:40:13;;;;;;;94.60;45.78;;;;;;;;;;5034739;28;25177;-85
2022/12/19 11:42:42;;;;;;;85.63;44.43;;;;;;;;;;5052713;28;20460;-86
2022/12/19 11:45:14;;;;;;;87.45;43.60;;;;;;;;;;5053418;28;20448;-88
2022/12/19 11:47:40;;;;;;;93.80;46.35;;;;;;;;;;5053081;28;20369;-88
2022/12/19 11:50:27;;;;;;;95.65;46.92;;;;;;;;;;5053031;28;20381;-87
2022/12/19 11:53:02;;;;;;;91.50;45.20;;;;;;;;;;5052986;28;20424;-87
2022/12/19 11:55:46;;;;;;;93.35;47.15;;;;;;;;;;5049924;28;20401;-88
2022/12/19 11:58:12;;;;;;;95.15;47.08;;;;;;;;;;5043544;28;20377;-88
2022/12/19 12:00:44;;;;;;;99.05;46.13;;;;;;;;;;5033908;28;20488;-89
2022/12/19 12:03:30;;;;;;;93.55;46.00;;;;;;;;;;5051902;28;20414;-88
2022/12/19 12:05:57;;;;;;;90.07;44.58;;;;;;;;;;5034511;28;25194;-88
2022/12/19 12:08:34;;;;;;;91.90;44.15;;;;;;;;;;5052694;28;20464;-88
2022/12/19 12:11:01;;;;;;;88.05;43.28;;;;;;;;;;5023290;28;20408;-88
2022/12/19 12:13:35;;;;;;;90.25;45.35;;;;;;;;;;5052356;28;20399;-88
2022/12/19 12:16:04;;;;;;;88.82;43.38;;;;;;;;;;5052492;28;20418;-88
2022/12/19 12:18:49;;;;;;;89.82;44.95;;;;;;;;;;5042073;28;20379;-88
2022/12/19 12:21:15;;;;;;;91.30;46.77;;;;;;;;;;5052202;28;21125;-88
2022/12/19 12:24:00;;;;;;;91.15;45.58;;;;;;;;;;5048001;28;20469;-89
2022/12/19 12:26:29;;;;;;;94.47;46.72;;;;;;;;;;5052338;28;20424;-86
2022/12/19 12:29:13;;;;;;;101.87;48.73;;;;;;;;;;5052391;28;20436;-86
2022/12/19 12:31:58;;;;;;;98.55;47.22;;;;;;;;;;5052002;28;25147;-86
2022/12/19 12:34:42;;;;;;;100.05;47.92;;;;;;;;;;5027295;28;25108;-85
2022/12/19 12:37:11;;;;;;;94.20;46.05;;;;;;;;;;5039478;28;25109;-85
2022/12/19 12:39:55;;;;;;;93.38;45.92;;;;;;;;;;5045744;28;20386;-85
2022/12/19 12:42:37;;;;;;;96.95;45.70;;;;;;;;;;5051842;28;25104;-85
2022/12/19 12:45:15;;;;;;;88.20;44.63;;;;;;;;;;5052043;28;20394;-86
2022/12/19 12:47:41;;;;;;;93.53;45.50;;;;;;;;;;5051924;28;25116;-88
2022/12/19 12:50:08;;;;;;;94.25;46.58;;;;;;;;;;5051903;28;20430;-87
2022/12/19 12:52:38;;;;;;;93.87;45.90;;;;;;;;;;5051854;28;20380;-88
2022/12/19 12:55:11;;;;;;;90.75;45.33;;;;;;;;;;5051927;28;20398;-88
2022/12/19 12:57:38;;;;;;;102.50;50.10;;;;;;;;;;5051742;28;20370;-86
2022/12/19 13:00:21;;;;;;;99.03;48.28;;;;;;;;;;5051781;28;20555;-85
2022/12/19 13:02:52;;;;;;;94.95;47.88;;;;;;;;;;5028343;28;20935;-85
2022/12/19 13:05:34;;;;;;;101.63;48.97;;;;;;;;;;5034154;28;20385;-86
2022/12/19 13:08:00;;;;;;;99.40;48.35;;;;;;;;;;5051713;28;20403;-88
2022/12/19 13:10:26;;;;;;;92.78;45.97;;;;;;;;;;5051627;28;20378;-88
2022/12/19 13:12:59;;;;;;;94.80;48.08;;;;;;;;;;5051588;28;20901;-88
2022/12/19 13:15:30;;;;;;;91.60;45.92;;;;;;;;;;5051443;28;20467;-88
2022/12/19 13:17:56;;;;;;;92.27;44.70;;;;;;;;;;5051483;28;20435;-89
2022/12/19 13:20:28;;;;;;;91.30;45.83;;;;;;;;;;5051479;28;20377;-88
2022/12/19 13:22:57;;;;;;;89.60;45.80;;;;;;;;;;5051468;28;20390;-89
2022/12/19 13:25:26;;;;;;;91.80;45.88;;;;;;;;;;5051438;28;20474;-88
2022/12/19 13:27:56;;;;;;;89.85;44.28;;;;;;;;;;5051435;28;20463;-88
2022/12/19 13:30:22;;;;;;;90.68;44.97;;;;;;;;;;5033426;28;20388;-88
2022/12/19 13:32:48;;;;;;;93.80;46.90;;;;;;;;;;5051391;28;20377;-88
2022/12/19 13:35:17;;;;;;;90.22;45.85;;;;;;;;;;5033822;28;20782;-87
2022/12/19 13:37:44;;;;;;;95.63;47.00;;;;;;;;;;5051402;28;20385;-85
2022/12/19 13:40:12;;;;;;;91.75;45.70;;;;;;;;;;5051192;28;20381;-88
2022/12/19 13:45:32;;;;;;;91.63;45.80;;;;;;;;;;5051602;28;20373;-89
2022/12/19 13:48:00;;;;;;;92.53;45.80;;;;;;;;;;5051375;28;20801;-88
2022/12/19 13:50:26;;;;;;;90.28;45.50;;;;;;;;;;5049275;28;20863;-88
2022/12/19 13:52:52;;;;;;;95.88;48.17;;;;;;;;;;5051237;28;20453;-85
2022/12/19 13:55:18;;;;;;;163.80;83.67;;;;;;;;;;5051107;28;20473;-86
2022/12/19 13:57:47;;;;;;;100.40;49.38;;;;;;;;;;5051110;28;20369;-89
2022/12/19 14:00:17;;;;;;;97.22;47.13;;;;;;;;;;5050891;28;20416;-89
2022/12/19 14:02:49;;;;;;;94.90;49.05;;;;;;;;;;5048430;28;20427;-85
2022/12/19 14:05:23;;;;;;;92.88;45.45;;;;;;;;;;5042120;28;20435;-86
2022/12/19 14:07:50;;;;;;;85.13;44.28;;;;;;;;;;5051021;28;20874;-86
2022/12/19 14:10:22;;;;;;;86.03;43.13;;;;;;;;;;5051067;28;20379;-85
2022/12/19 14:15:35;;;;;;;87.30;44.97;;;;;;;;;;5051111;28;20924;-85
2022/12/19 14:18:02;;;;;;;90.55;44.90;;;;;;;;;;5050924;28;20386;-87
2022/12/19 14:20:30;;;;;;;83.88;43.22;;;;;;;;;;5050924;28;20840;-86
2022/12/19 14:23:00;;;;;;;85.22;42.25;;;;;;;;;;5026183;28;20793;-86
2022/12/19 14:25:37;;;;;;;83.00;42.45;;;;;;;;;;5050909;28;20406;-86
2022/12/19 14:28:05;;;;;;;87.45;44.00;;;;;;;;;;5054102;28;20402;-87
2022/12/19 14:30:32;;;;;;;83.83;43.17;;;;;;;;;;5052757;28;20501;-87
2022/12/19 14:33:04;;;;;;;84.00;44.13;;;;;;;;;;5050750;28;20408;-88